Time;durP1;ratioP1;P1;durP2;ratioP2;P2;SDS_P1;SDS_P2;PMS_P1;PMS_P2;Temp;Humidity;BMP_temperature;BMP_pressure;BME280_temperature;BME280_humidity;BME280_pressure;Samples;Min_cycle;Max_cycle;Signal;HPM_P1;HPM_P2
2022/08/14 00:00:04;;;;;;;;;;;;;;;24.19;45.49;99765.13;5409982;32;45089;-73
2022/08/14 00:03:06;;;;;;;;;;;;;;;24.03;45.91;99762.41;5396192;32;35462;-73
2022/08/14 00:06:09;;;;;;;;;;;;;;;24.26;45.52;99759.94;5416808;32;35495;-67
2022/08/14 00:09:29;;;;;;;;;;;;;;;24.25;45.28;99764.50;5375582;32;44982;-73
2022/08/14 00:12:34;;;;;;;;;;;;;;;24.50;44.81;99753.84;5404475;32;34681;-72
2022/08/14 00:15:41;;;;;;;;;;;;;;;25.34;43.07;99758.94;5376163;32;34318;-67
2022/08/14 00:18:48;;;;;;;;;;;;;;;24.08;45.94;99762.72;5387824;32;34424;-67
2022/08/14 00:22:14;;;;;;;;;;;;;;;23.85;47.22;99757.13;5400037;32;35886;-72
2022/08/14 00:25:36;;;;;;;;;;;;;;;23.97;47.00;99771.09;5391802;32;46078;-73
2022/08/14 00:28:43;;;;;;;;;;;;;;;24.56;45.82;99758.56;5389075;32;34823;-71
2022/08/14 00:31:46;;;;;;;;;;;;;;;24.67;44.89;99752.88;5405917;32;35942;-71
2022/08/14 00:35:00;;;;;;;;;;;;;;;24.06;46.68;99751.31;5385568;32;34129;-74
2022/08/14 00:38:02;;;;;;;;;;;;;;;24.09;46.69;99748.34;5415926;32;44565;-66
2022/08/14 00:41:09;;;;;;;;;;;;;;;24.35;45.81;99736.69;5391604;32;34977;-67
2022/08/14 00:44:11;;;;;;;;;;;;;;;23.92;47.17;99744.72;5411939;32;34869;-73
2022/08/14 00:47:14;;;;;;;;;;;;;;;23.41;48.58;99746.44;5381354;32;34361;-74
2022/08/14 00:50:18;;;;;;;;;;;;;;;24.74;45.10;99743.16;5392119;32;35202;-67
2022/08/14 00:53:24;;;;;;;;;;;;;;;24.71;44.90;99742.63;5415804;32;34556;-67
2022/08/14 00:56:26;;;;;;;;;;;;;;;24.61;45.04;99740.09;5389470;32;34876;-67
2022/08/14 00:59:32;;;;;;;;;;;;;;;24.01;46.59;99748.28;5410823;32;45700;-67
2022/08/14 01:02:36;;;;;;;;;;;;;;;23.05;49.41;99745.66;5382356;32;35771;-66
2022/08/14 01:05:48;;;;;;;;;;;;;;;23.95;47.33;99739.03;5391297;32;34244;-66
2022/08/14 01:08:54;;;;;;;;;;;;;;;24.56;45.29;99723.62;5391206;32;34440;-72
2022/08/14 01:12:00;;;;;;;;;;;;;;;24.54;45.67;99736.41;5373179;32;47558;-73
2022/08/14 01:15:04;;;;;;;;;;;;;;;23.86;47.47;99736.50;5391231;32;35015;-73
2022/08/14 01:21:32;;;;;;;;;;;;;;;23.80;47.73;99740.66;5400140;32;44531;-67
2022/08/14 01:24:35;;;;;;;;;;;;;;;24.72;45.28;99739.75;5391769;32;35407;-67
2022/08/14 01:27:38;;;;;;;;;;;;;;;23.68;47.92;99741.94;5392119;32;34910;-74
2022/08/14 01:30:58;;;;;;;;;;;;;;;24.09;46.67;99742.97;5406357;32;45609;-67
2022/08/14 01:34:03;;;;;;;;;;;;;;;23.04;49.74;99752.03;5399956;32;36907;-74
2022/08/14 01:37:24;;;;;;;;;;;;;;;22.92;50.25;99753.25;5399058;32;34033;-72
2022/08/14 01:40:27;;;;;;;;;;;;;;;22.21;51.62;99758.53;5402797;32;34918;-75
2022/08/14 01:43:44;;;;;;;;;;;;;;;22.57;50.68;99762.13;5398382;32;35347;-67
2022/08/14 01:46:58;;;;;;;;;;;;;;;22.65;50.31;99755.00;5414362;32;33381;-66
2022/08/14 01:50:04;;;;;;;;;;;;;;;23.84;47.47;99749.25;5393823;32;35017;-74
2022/08/14 01:53:06;;;;;;;;;;;;;;;23.17;49.32;99757.81;5395701;32;35449;-66
2022/08/14 01:56:09;;;;;;;;;;;;;;;22.72;51.13;99749.87;5394210;32;33069;-66
2022/08/14 01:59:20;;;;;;;;;;;;;;;22.82;50.93;99758.69;5395225;32;34153;-73
2022/08/14 02:02:22;;;;;;;;;;;;;;;22.78;51.15;99761.81;5408972;32;35130;-67
2022/08/14 02:05:29;;;;;;;;;;;;;;;23.36;49.75;99750.59;5385761;32;34603;-68
2022/08/14 02:08:37;;;;;;;;;;;;;;;23.77;48.43;99757.09;5410045;32;44625;-67
2022/08/14 02:11:53;;;;;;;;;;;;;;;22.84;51.05;99755.84;5387390;32;34223;-72
2022/08/14 02:14:55;;;;;;;;;;;;;;;22.73;51.22;99758.75;5390915;32;34595;-67
2022/08/14 02:18:03;;;;;;;;;;;;;;;22.51;52.22;99766.25;5391772;32;44598;-67
2022/08/14 02:21:05;;;;;;;;;;;;;;;22.36;52.72;99760.56;5393354;32;35292;-73
2022/08/14 02:24:07;;;;;;;;;;;;;;;22.26;53.38;99766.97;5398914;32;34740;-72
2022/08/14 02:27:29;;;;;;;;;;;;;;;23.14;50.93;99755.47;5393775;32;44956;-66
2022/08/14 02:30:50;;;;;;;;;;;;;;;22.99;51.25;99759.69;5390261;32;35043;-67
2022/08/14 02:33:53;;;;;;;;;;;;;;;22.44;53.08;99760.66;5417221;32;34423;-73
2022/08/14 02:37:01;;;;;;;;;;;;;;;22.98;51.42;99753.47;5391910;32;35380;-67
2022/08/14 02:40:08;;;;;;;;;;;;;;;22.01;54.30;99747.91;5397202;32;37368;-73
2022/08/14 02:43:10;;;;;;;;;;;;;;;23.09;51.47;99760.44;5399130;32;35335;-67
2022/08/14 02:46:12;;;;;;;;;;;;;;;23.66;49.86;99751.97;5403586;32;34502;-71
2022/08/14 02:49:25;;;;;;;;;;;;;;;23.70;49.57;99747.97;5395539;32;34823;-73
2022/08/14 02:52:35;;;;;;;;;;;;;;;23.22;50.92;99766.25;5381432;32;43148;-72
2022/08/14 02:55:57;;;;;;;;;;;;;;;23.11;51.29;99755.75;5407232;32;34822;-69
2022/08/14 02:59:05;;;;;;;;;;;;;;;23.29;51.01;99754.91;5387994;32;45463;-66
2022/08/14 03:02:08;;;;;;;;;;;;;;;23.72;49.78;99760.25;5404690;32;35457;-71
2022/08/14 03:05:30;;;;;;;;;;;;;;;22.90;51.88;99760.62;5408219;32;45219;-67
2022/08/14 03:08:36;;;;;;;;;;;;;;;21.83;55.94;99765.72;5378975;32;34837;-72
2022/08/14 03:11:41;;;;;;;;;;;;;;;23.15;51.71;99759.81;5402548;32;35176;-68
2022/08/14 03:14:48;;;;;;;;;;;;;;;22.68;53.02;99765.41;5399599;32;34361;-72
2022/08/14 03:17:51;;;;;;;;;;;;;;;22.17;54.26;99769.56;5387580;32;34904;-68
2022/08/14 03:21:00;;;;;;;;;;;;;;;22.14;54.13;99771.66;5400193;32;44884;-68
2022/08/14 03:27:17;;;;;;;;;;;;;;;21.74;54.05;99762.09;5403668;32;34302;-66
2022/08/14 03:30:19;;;;;;;;;;;;;;;22.03;53.47;99780.72;5395288;32;34946;-73
2022/08/14 03:33:26;;;;;;;;;;;;;;;21.61;54.52;99789.16;5413933;32;36014;-67
2022/08/14 03:36:31;;;;;;;;;;;;;;;21.62;54.35;99780.16;5377874;32;45357;-67
2022/08/14 03:39:52;;;;;;;;;;;;;;;21.95;53.39;99775.25;5382234;32;35538;-66
2022/08/14 03:42:54;;;;;;;;;;;;;;;22.78;51.21;99767.16;5397560;32;35198;-72
2022/08/14 03:45:56;;;;;;;;;;;;;;;23.32;49.38;99770.69;5376523;32;34226;-66
2022/08/14 03:49:00;;;;;;;;;;;;;;;23.27;49.24;99768.47;5414058;32;45135;-69
2022/08/14 03:52:04;;;;;;;;;;;;;;;21.96;52.58;99781.44;5379141;32;35184;-72
2022/08/14 03:55:27;;;;;;;;;;;;;;;21.47;54.21;99778.94;5395358;32;35603;-75
2022/08/14 03:58:31;;;;;;;;;;;;;;;21.41;54.27;99768.81;5400062;32;44676;-67
2022/08/14 04:01:38;;;;;;;;;;;;;;;21.66;53.64;99775.38;5390828;32;35619;-73
2022/08/14 04:04:54;;;;;;;;;;;;;;;22.06;52.16;99775.06;5415341;32;34092;-73
2022/08/14 04:08:08;;;;;;;;;;;;;;;21.50;53.95;99777.78;5397194;32;34877;-72
2022/08/14 04:11:30;;;;;;;;;;;;;;;21.25;54.57;99772.06;5371552;32;44928;-66
2022/08/14 04:14:32;;;;;;;;;;;;;;;21.35;54.45;99778.25;5415296;32;36487;-72
2022/08/14 04:17:38;;;;;;;;;;;;;;;21.53;54.12;99785.53;5373869;32;34755;-69
2022/08/14 04:20:41;;;;;;;;;;;;;;;21.46;54.03;99771.91;5410350;32;35084;-69
2022/08/14 04:23:57;;;;;;;;;;;;;;;21.60;53.43;99770.59;5389257;32;33987;-67
2022/08/14 04:26:59;;;;;;;;;;;;;;;22.40;51.56;99783.34;5385534;32;44424;-75
2022/08/14 04:30:02;;;;;;;;;;;;;;;22.77;50.22;99781.56;5376529;32;35593;-65
2022/08/14 04:33:07;;;;;;;;;;;;;;;21.60;54.02;99787.50;5382287;32;34806;-75
2022/08/14 04:36:21;;;;;;;;;;;;;;;22.59;51.45;99785.06;5393639;32;35191;-67
2022/08/14 04:46:17;;;;;;;;;;;;;;;22.32;51.83;99771.72;5406769;32;35120;-73
2022/08/14 04:49:41;;;;;;;;;;;;;;;22.64;51.47;99787.28;5396834;32;35935;-74
2022/08/14 04:52:58;;;;;;;;;;;;;;;23.60;48.99;99787.47;5397269;32;44633;-68
2022/08/14 04:56:03;;;;;;;;;;;;;;;23.07;50.32;99794.63;5392146;32;35545;-68
2022/08/14 04:59:06;;;;;;;;;;;;;;;22.77;51.19;99798.47;5385272;32;34848;-73
2022/08/14 05:02:12;;;;;;;;;;;;;;;23.20;49.86;99791.53;5393886;32;35322;-67
2022/08/14 05:05:15;;;;;;;;;;;;;;;22.82;50.94;99800.72;5399989;32;35627;-68
2022/08/14 05:08:17;;;;;;;;;;;;;;;23.23;50.00;99788.53;5408178;32;34757;-75
2022/08/14 05:11:39;;;;;;;;;;;;;;;23.89;48.10;99793.34;5375020;32;35426;-76
2022/08/14 05:14:42;;;;;;;;;;;;;;;23.87;49.02;99798.03;5405882;32;35398;-72
2022/08/14 05:17:55;;;;;;;;;;;;;;;24.78;46.29;99792.84;5373368;32;34350;-69
2022/08/14 05:21:17;;;;;;;;;;;;;;;26.19;43.21;99788.00;5393553;32;35003;-74
2022/08/14 05:24:39;;;;;;;;;;;;;;;25.80;43.70;99790.66;5410525;32;34875;-68
2022/08/14 05:27:41;;;;;;;;;;;;;;;25.96;43.80;99789.81;5394808;32;34499;-68
2022/08/14 05:30:50;;;;;;;;;;;;;;;25.80;44.04;99787.97;5396883;32;35142;-73
2022/08/14 05:33:52;;;;;;;;;;;;;;;25.98;43.81;99791.28;5398288;32;35168;-67
2022/08/14 05:36:59;;;;;;;;;;;;;;;26.81;41.01;99785.34;5388368;32;37109;-74
2022/08/14 05:40:04;;;;;;;;;;;;;;;27.00;40.75;99782.16;5394833;32;34869;-70
2022/08/14 05:43:07;;;;;;;;;;;;;;;25.91;43.42;99788.47;5398427;32;34478;-74
2022/08/14 05:46:10;;;;;;;;;;;;;;;27.20;40.61;99784.41;5387573;32;35067;-67
2022/08/14 05:49:16;;;;;;;;;;;;;;;27.56;39.66;99786.41;5400637;32;36073;-68
2022/08/14 05:52:17;;;;;;;;;;;;;;;28.01;38.65;99788.97;5391229;32;34123;-68
2022/08/14 05:55:39;;;;;;;;;;;;;;;27.71;39.13;99795.41;5406435;32;38592;-75
2022/08/14 05:58:45;;;;;;;;;;;;;;;26.58;41.44;99798.78;5374183;32;37165;-74
2022/08/14 06:01:47;;;;;;;;;;;;;;;26.28;42.56;99794.22;5404931;32;34991;-68
2022/08/14 06:04:51;;;;;;;;;;;;;;;27.02;40.53;99794.63;5401410;32;34161;-73
2022/08/14 06:07:53;;;;;;;;;;;;;;;27.95;38.57;99786.19;5400264;32;34927;-74
2022/08/14 06:11:01;;;;;;;;;;;;;;;27.65;39.32;99786.16;5395016;32;37277;-73
2022/08/14 06:14:04;;;;;;;;;;;;;;;27.81;39.16;99793.25;5400128;32;35903;-75
2022/08/14 06:17:21;;;;;;;;;;;;;;;29.07;36.73;99782.13;5371850;32;35217;-68
2022/08/14 06:20:27;;;;;;;;;;;;;;;28.77;37.18;99778.69;5396153;32;34733;-75
2022/08/14 06:23:30;;;;;;;;;;;;;;;29.94;34.68;99780.91;5394463;32;44693;-68
2022/08/14 06:26:33;;;;;;;;;;;;;;;29.81;34.95;99761.88;5380132;32;34527;-68
2022/08/14 06:29:35;;;;;;;;;;;;;;;30.88;32.82;99767.53;5393730;32;37578;-73
2022/08/14 06:32:38;;;;;;;;;;;;;;;30.75;33.34;99778.38;5393550;32;34923;-69
2022/08/14 06:35:43;;;;;;;;;;;;;;;31.90;31.14;99768.16;5392016;32;34873;-68
2022/08/14 06:38:47;;;;;;;;;;;;;;;29.85;34.64;99768.59;5412742;32;35025;-74
2022/08/14 06:41:51;;;;;;;;;;;;;;;31.64;31.57;99763.59;5385565;32;34511;-69
2022/08/14 06:45:00;;;;;;;;;;;;;;;31.75;31.12;99766.50;5396832;32;43997;-68
2022/08/14 06:48:04;;;;;;;;;;;;;;;32.82;29.40;99748.69;5392246;32;35203;-66
2022/08/14 06:51:13;;;;;;;;;;;;;;;32.10;30.50;99758.06;5389682;32;35609;-75
2022/08/14 06:54:15;;;;;;;;;;;;;;;30.37;33.49;99764.47;5413083;32;34254;-74
2022/08/14 06:57:17;;;;;;;;;;;;;;;30.59;33.77;99765.16;5363825;32;35012;-74
2022/08/14 07:00:26;;;;;;;;;;;;;;;31.68;31.60;99746.66;5390331;32;34964;-68
2022/08/14 07:06:53;;;;;;;;;;;;;;;30.67;33.87;99755.00;5398787;32;33287;-73
2022/08/14 07:10:00;;;;;;;;;;;;;;;30.83;33.50;99753.75;5383651;32;45563;-75
2022/08/14 07:13:02;;;;;;;;;;;;;;;34.36;27.60;99718.87;5396908;32;34807;-69
2022/08/14 07:16:05;;;;;;;;;;;;;;;33.89;28.32;99733.09;5377633;32;34851;-69
2022/08/14 07:19:08;;;;;;;;;;;;;;;33.42;29.30;99737.34;5395820;32;34912;-73
2022/08/14 07:22:11;;;;;;;;;;;;;;;31.96;31.62;99734.72;5397863;32;35027;-68
2022/08/14 07:25:21;;;;;;;;;;;;;;;31.25;33.05;99749.03;5408785;32;35451;-68
2022/08/14 07:28:34;;;;;;;;;;;;;;;32.71;30.32;99741.22;5401072;32;45019;-74
2022/08/14 07:31:44;;;;;;;;;;;;;;;34.10;28.43;99740.00;5392805;32;34523;-75
2022/08/14 07:34:47;;;;;;;;;;;;;;;31.91;31.92;99743.50;5403366;32;34829;-73
2022/08/14 07:37:49;;;;;;;;;;;;;;;33.33;29.60;99735.97;5407586;32;34739;-75
2022/08/14 07:40:53;;;;;;;;;;;;;;;33.82;28.79;99734.25;5400256;32;34805;-73
2022/08/14 07:43:56;;;;;;;;;;;;;;;33.58;29.38;99741.41;5375122;32;35532;-69
2022/08/14 07:46:59;;;;;;;;;;;;;;;35.29;26.80;99729.22;5404301;32;45607;-69
2022/08/14 07:50:03;;;;;;;;;;;;;;;35.87;25.81;99731.09;5395706;32;35326;-74
2022/08/14 07:53:08;;;;;;;;;;;;;;;33.22;29.83;99739.41;5396531;32;34243;-73
2022/08/14 07:56:10;;;;;;;;;;;;;;;34.43;28.13;99739.59;5392063;32;36340;-76
2022/08/14 07:59:32;;;;;;;;;;;;;;;35.28;26.71;99731.12;5374116;32;45174;-68
2022/08/14 08:02:46;;;;;;;;;;;;;;;32.13;31.78;99730.44;5409716;32;35055;-68
2022/08/14 08:05:56;;;;;;;;;;;;;;;32.25;31.47;99728.69;5401076;32;34152;-74
2022/08/14 08:08:59;;;;;;;;;;;;;;;32.92;30.54;99731.09;5405834;32;43452;-74
2022/08/14 08:12:04;;;;;;;;;;;;;;;34.49;28.16;99724.19;5388432;32;35798;-73
2022/08/14 08:15:15;;;;;;;;;;;;;;;33.34;29.99;99732.19;5382607;32;34887;-74
2022/08/14 08:18:17;;;;;;;;;;;;;;;34.07;28.49;99731.44;5399177;32;34755;-75
2022/08/14 08:21:30;;;;;;;;;;;;;;;34.00;28.83;99736.97;5395462;32;44587;-73
2022/08/14 08:24:36;;;;;;;;;;;;;;;35.32;27.04;99734.22;5412082;32;35576;-73
2022/08/14 08:27:38;;;;;;;;;;;;;;;34.24;28.57;99726.19;5380395;32;34631;-72
2022/08/14 08:30:53;;;;;;;;;;;;;;;35.43;26.53;99729.88;5400743;32;36869;-74
2022/08/14 08:33:56;;;;;;;;;;;;;;;34.75;27.61;99731.16;5410662;32;34459;-66
2022/08/14 08:36:58;;;;;;;;;;;;;;;34.52;27.75;99729.16;5389987;32;43588;-69
2022/08/14 08:40:07;;;;;;;;;;;;;;;35.18;26.62;99716.41;5384073;32;35110;-74
2022/08/14 08:43:29;;;;;;;;;;;;;;;34.74;27.24;99715.84;5397446;32;35213;-67
2022/08/14 08:46:32;;;;;;;;;;;;;;;33.29;29.04;99719.22;5388147;32;45189;-69
2022/08/14 08:49:41;;;;;;;;;;;;;;;35.25;26.71;99708.94;5400260;32;34976;-68
2022/08/14 08:52:50;;;;;;;;;;;;;;;37.20;23.86;99706.22;5395413;32;35503;-73
2022/08/14 08:55:52;;;;;;;;;;;;;;;34.66;27.41;99719.75;5406412;32;34546;-73
2022/08/14 08:58:54;;;;;;;;;;;;;;;36.97;24.02;99707.22;5387100;32;34912;-74
2022/08/14 09:01:57;;;;;;;;;;;;;;;36.00;25.41;99709.00;5404625;32;34277;-72
2022/08/14 09:05:01;;;;;;;;;;;;;;;34.43;27.39;99717.75;5400170;32;42524;-68
2022/08/14 09:08:13;;;;;;;;;;;;;;;36.49;24.01;99700.38;5400709;32;35018;-67
2022/08/14 09:11:33;;;;;;;;;;;;;;;38.69;21.17;99688.63;5387575;32;45063;-74
2022/08/14 09:14:36;;;;;;;;;;;;;;;38.68;21.12;99692.47;5357595;32;903062;-69
2022/08/14 09:17:40;;;;;;;;;;;;;;;36.81;22.84;99692.44;5372538;32;35110;-67
2022/08/14 09:20:44;;;;;;;;;;;;;;;35.11;25.34;99688.37;5394280;32;34466;-67
2022/08/14 09:23:46;;;;;;;;;;;;;;;34.42;26.37;99699.72;5396260;32;35107;-67
2022/08/14 09:27:08;;;;;;;;;;;;;;;34.62;26.45;99687.69;5391374;32;35613;-74
2022/08/14 09:30:23;;;;;;;;;;;;;;;38.86;20.91;99685.78;5380296;32;34150;-67
2022/08/14 09:34:01;;;;;;;;;;;;;;;37.22;23.08;99677.50;5414522;32;44817;-73
2022/08/14 09:37:25;;;;;;;;;;;;;;;38.62;21.63;99674.28;5370714;32;36038;-73
2022/08/14 09:40:43;;;;;;;;;;;;;;;39.64;19.95;99673.16;5379140;32;44649;-67
2022/08/14 09:43:52;;;;;;;;;;;;;;;34.86;25.65;99664.84;5414174;32;34761;-72
2022/08/14 09:46:55;;;;;;;;;;;;;;;35.59;24.89;99669.00;5372466;32;34194;-72
2022/08/14 09:49:59;;;;;;;;;;;;;;;36.36;23.98;99665.91;5408438;32;43950;-67
2022/08/14 09:53:03;;;;;;;;;;;;;;;37.27;23.11;99666.63;5395765;32;36132;-67
2022/08/14 09:56:05;;;;;;;;;;;;;;;40.46;18.97;99645.88;5376555;32;34932;-74
2022/08/14 09:59:13;;;;;;;;;;;;;;;38.21;21.32;99652.75;5413392;32;34580;-67
2022/08/14 10:02:23;;;;;;;;;;;;;;;40.63;18.36;99649.19;5391573;32;35888;-74
2022/08/14 10:05:30;;;;;;;;;;;;;;;39.68;18.90;99649.53;5399712;32;44715;-67
2022/08/14 10:08:40;;;;;;;;;;;;;;;41.55;16.62;99638.06;5393287;32;38096;-67
2022/08/14 10:11:58;;;;;;;;;;;;;;;40.69;17.40;99645.34;5389708;32;34712;-74
2022/08/14 10:15:00;;;;;;;;;;;;;;;40.07;17.21;99640.88;5392244;32;43797;-68
2022/08/14 10:18:14;;;;;;;;;;;;;;;37.89;18.63;99654.59;5378541;32;35614;-73
2022/08/14 10:21:19;;;;;;;;;;;;;;;38.06;18.82;99644.34;5407671;32;34380;-69
2022/08/14 10:24:23;;;;;;;;;;;;;;;38.53;18.90;99652.00;5384302;32;34176;-67
2022/08/14 10:27:38;;;;;;;;;;;;;;;39.71;17.52;99642.66;5372877;32;34267;-72
2022/08/14 10:30:40;;;;;;;;;;;;;;;39.03;17.37;99638.94;5401950;32;35075;-75
2022/08/14 10:33:42;;;;;;;;;;;;;;;40.27;15.74;99640.91;5401728;32;35097;-73
2022/08/14 10:37:00;;;;;;;;;;;;;;;39.06;16.60;99636.50;5412821;32;34125;-66
2022/08/14 10:40:03;;;;;;;;;;;;;;;41.10;14.05;99637.06;5392987;32;48496;-74
2022/08/14 10:43:15;;;;;;;;;;;;;;;40.29;14.34;99641.44;5394577;32;34965;-67
2022/08/14 10:46:17;;;;;;;;;;;;;;;38.95;15.65;99645.75;5379840;32;35714;-74
2022/08/14 10:49:48;;;;;;;;;;;;;;;36.90;17.33;99640.84;5396920;32;36028;-67
2022/08/14 10:52:56;;;;;;;;;;;;;;;37.01;17.16;99631.72;5410798;32;35082;-67
2022/08/14 10:55:59;;;;;;;;;;;;;;;38.82;15.37;99643.47;5391640;32;45541;-68
2022/08/14 10:59:06;;;;;;;;;;;;;;;39.77;14.54;99622.31;5418343;32;35877;-68
2022/08/14 11:02:22;;;;;;;;;;;;;;;37.65;16.86;99629.31;5403515;32;34884;-74
2022/08/14 11:05:45;;;;;;;;;;;;;;;36.29;18.21;99635.13;5396563;32;35736;-67
2022/08/14 11:08:50;;;;;;;;;;;;;;;37.73;16.48;99633.53;5411241;32;34177;-72
2022/08/14 11:11:54;;;;;;;;;;;;;;;38.10;16.48;99628.22;5394889;32;35368;-68
2022/08/14 11:15:34;;;;;;;;;;;;;;;40.32;14.64;99616.12;5388948;32;34698;-73
2022/08/14 11:18:37;;;;;;;;;;;;;;;38.97;15.49;99616.12;5390759;32;38160;-71
2022/08/14 11:21:41;;;;;;;;;;;;;;;37.99;16.48;99607.25;5399144;32;34498;-68
2022/08/14 11:24:47;;;;;;;;;;;;;;;37.70;17.18;99614.88;5401161;32;34242;-67
2022/08/14 11:27:58;;;;;;;;;;;;;;;41.66;13.19;99596.34;5403335;32;35146;-68
2022/08/14 11:31:00;;;;;;;;;;;;;;;40.29;15.13;99596.59;5406102;32;46164;-72
2022/08/14 11:34:04;;;;;;;;;;;;;;;42.60;12.77;99596.31;5395168;32;34539;-66
2022/08/14 11:37:11;;;;;;;;;;;;;;;43.29;10.72;99582.34;5382856;32;34492;-72
2022/08/14 11:40:34;;;;;;;;;;;;;;;39.18;14.12;99589.59;5408648;32;45621;-67
2022/08/14 11:43:39;;;;;;;;;;;;;;;41.50;13.30;99575.47;5401522;32;35450;-68
2022/08/14 11:46:42;;;;;;;;;;;;;;;41.56;13.11;99571.59;5397982;32;36747;-67
2022/08/14 11:49:47;;;;;;;;;;;;;;;41.87;12.66;99572.25;5387421;32;34924;-74
2022/08/14 11:52:55;;;;;;;;;;;;;;;43.26;11.94;99554.16;5386736;32;35106;-67
2022/08/14 11:56:04;;;;;;;;;;;;;;;41.76;13.30;99567.91;5408397;32;44304;-74
2022/08/14 11:59:16;;;;;;;;;;;;;;;44.00;11.80;99549.00;5401038;32;35003;-66
2022/08/14 12:02:18;;;;;;;;;;;;;;;41.23;13.89;99553.78;5396340;32;34538;-66
2022/08/14 12:05:43;;;;;;;;;;;;;;;45.10;10.65;99545.72;5402807;32;35281;-67
2022/08/14 12:08:45;;;;;;;;;;;;;;;44.95;10.79;99543.22;5396439;32;34195;-76
2022/08/14 12:11:54;;;;;;;;;;;;;;;45.79;10.18;99535.34;5398991;32;34696;-68
2022/08/14 12:14:59;;;;;;;;;;;;;;;42.81;12.10;99533.38;5396789;32;34400;-75
2022/08/14 12:18:01;;;;;;;;;;;;;;;44.02;11.28;99524.62;5379295;32;36271;-76
2022/08/14 12:21:12;;;;;;;;;;;;;;;41.54;12.84;99537.09;5393917;32;33972;-67
2022/08/14 12:24:25;;;;;;;;;;;;;;;38.79;15.46;99531.41;5402924;32;34190;-75
2022/08/14 12:27:38;;;;;;;;;;;;;;;43.04;11.99;99525.44;5410590;32;44898;-73
2022/08/14 12:30:47;;;;;;;;;;;;;;;44.31;10.86;99506.97;5394417;32;35129;-66
2022/08/14 12:33:58;;;;;;;;;;;;;;;43.74;11.33;99517.31;5418677;32;34593;-67
2022/08/14 12:37:04;;;;;;;;;;;;;;;43.94;10.85;99508.69;5376900;32;44995;-68
2022/08/14 12:40:13;;;;;;;;;;;;;;;45.11;10.13;99508.53;5387160;32;35649;-67
2022/08/14 12:43:21;;;;;;;;;;;;;;;44.13;10.60;99516.16;5414053;32;34867;-78
2022/08/14 12:46:24;;;;;;;;;;;;;;;45.22;9.76;99504.41;5397451;32;35068;-67
2022/08/14 12:49:29;;;;;;;;;;;;;;;41.87;12.43;99516.25;5417487;32;45360;-66
2022/08/14 12:52:37;;;;;;;;;;;;;;;40.41;13.59;99509.03;5381628;32;35880;-75
2022/08/14 12:56:00;;;;;;;;;;;;;;;35.96;18.15;99521.87;5398021;32;45157;-66
2022/08/14 12:59:28;;;;;;;;;;;;;;;36.11;17.96;99506.81;5402451;32;35346;-66
2022/08/14 13:02:35;;;;;;;;;;;;;;;34.51;19.76;99505.69;5381889;32;44359;-76
2022/08/14 13:05:37;;;;;;;;;;;;;;;36.51;17.54;99502.00;5416367;32;34774;-77
2022/08/14 13:08:43;;;;;;;;;;;;;;;34.46;19.47;99488.16;5392140;32;34775;-74
2022/08/14 13:11:54;;;;;;;;;;;;;;;34.43;19.69;99499.53;5387172;32;34318;-77
2022/08/14 13:15:19;;;;;;;;;;;;;;;34.91;19.01;99494.88;5395801;32;35028;-66
2022/08/14 13:18:21;;;;;;;;;;;;;;;35.12;18.55;99494.25;5386803;32;34724;-68
2022/08/14 13:21:26;;;;;;;;;;;;;;;34.14;19.69;99497.72;5408863;32;35019;-67
2022/08/14 13:24:30;;;;;;;;;;;;;;;35.15;18.87;99491.03;5397944;32;45658;-76
2022/08/14 13:27:35;;;;;;;;;;;;;;;35.91;18.00;99475.31;5392519;32;34938;-67
2022/08/14 13:30:41;;;;;;;;;;;;;;;34.30;19.77;99472.47;5385328;32;36374;-66
2022/08/14 13:33:43;;;;;;;;;;;;;;;34.39;19.77;99489.28;5405685;32;34777;-67
2022/08/14 13:36:45;;;;;;;;;;;;;;;34.73;19.46;99484.94;5394043;32;34677;-67
2022/08/14 13:39:55;;;;;;;;;;;;;;;33.65;20.84;99492.34;5381661;32;34840;-67
2022/08/14 13:42:58;;;;;;;;;;;;;;;34.59;19.96;99483.53;5401090;32;44672;-68
2022/08/14 13:46:01;;;;;;;;;;;;;;;34.39;20.22;99486.56;5391408;32;37507;-78
2022/08/14 13:49:09;;;;;;;;;;;;;;;35.51;18.86;99470.75;5411064;32;34704;-75
2022/08/14 13:52:11;;;;;;;;;;;;;;;34.04;20.49;99464.72;5408177;32;34654;-75
2022/08/14 13:55:33;;;;;;;;;;;;;;;33.78;21.20;99463.22;5392659;32;45243;-68
2022/08/14 13:58:36;;;;;;;;;;;;;;;33.75;21.25;99467.28;5415570;32;34712;-75
2022/08/14 14:01:45;;;;;;;;;;;;;;;34.31;20.41;99460.47;5376504;32;34637;-65
2022/08/14 14:04:52;;;;;;;;;;;;;;;34.30;20.32;99452.53;5406951;32;34807;-67
2022/08/14 14:07:56;;;;;;;;;;;;;;;33.33;21.54;99460.91;5376542;32;34877;-75
2022/08/14 14:10:58;;;;;;;;;;;;;;;33.77;21.19;99450.69;5384550;32;42710;-76
2022/08/14 14:14:00;;;;;;;;;;;;;;;34.38;20.21;99433.09;5400207;32;35653;-66
2022/08/14 14:17:06;;;;;;;;;;;;;;;33.64;21.25;99435.38;5375563;32;35974;-75
2022/08/14 14:20:12;;;;;;;;;;;;;;;33.86;21.16;99455.53;5416580;32;36736;-67
2022/08/14 14:23:34;;;;;;;;;;;;;;;34.48;20.23;99439.63;5408608;32;45540;-75
2022/08/14 14:26:37;;;;;;;;;;;;;;;34.70;20.07;99437.09;5407158;32;35384;-75
2022/08/14 14:29:40;;;;;;;;;;;;;;;34.43;20.49;99442.25;5412554;32;34326;-73
2022/08/14 14:32:51;;;;;;;;;;;;;;;35.21;19.77;99442.81;5381168;32;34854;-66
2022/08/14 14:36:12;;;;;;;;;;;;;;;34.28;20.48;99441.88;5420559;32;35286;-78
2022/08/14 14:39:14;;;;;;;;;;;;;;;35.16;19.63;99448.16;5391829;32;34469;-77
2022/08/14 14:42:23;;;;;;;;;;;;;;;34.70;19.99;99442.56;5406144;32;32784;-76
2022/08/14 14:45:33;;;;;;;;;;;;;;;34.22;20.76;99445.56;5406867;32;44652;-78
2022/08/14 14:48:43;;;;;;;;;;;;;;;33.55;21.39;99434.84;5398040;32;35075;-67
2022/08/14 14:51:55;;;;;;;;;;;;;;;33.38;21.63;99426.50;5406158;32;34778;-76
2022/08/14 14:54:58;;;;;;;;;;;;;;;33.66;21.37;99422.31;5403703;32;34902;-70
2022/08/14 14:58:00;;;;;;;;;;;;;;;33.77;20.95;99418.81;5393267;32;46347;-75
2022/08/14 15:01:08;;;;;;;;;;;;;;;33.49;21.50;99421.31;5392403;32;35611;-75
2022/08/14 15:04:11;;;;;;;;;;;;;;;33.10;22.04;99420.78;5391282;32;34422;-76
2022/08/14 15:07:21;;;;;;;;;;;;;;;32.51;22.71;99417.69;5419811;32;35248;-75
2022/08/14 15:10:24;;;;;;;;;;;;;;;32.37;22.99;99415.38;5394839;32;34544;-75
2022/08/14 15:13:32;;;;;;;;;;;;;;;32.40;23.20;99415.75;5416656;32;44056;-75
2022/08/14 15:16:43;;;;;;;;;;;;;;;32.59;22.70;99419.31;5388930;32;34932;-68
2022/08/14 15:19:47;;;;;;;;;;;;;;;33.67;21.75;99421.25;5389649;32;35949;-66
2022/08/14 15:22:59;;;;;;;;;;;;;;;32.94;22.94;99426.88;5420926;32;37578;-76
2022/08/14 15:26:14;;;;;;;;;;;;;;;33.14;22.79;99419.28;5390195;32;34637;-73
2022/08/14 15:29:39;;;;;;;;;;;;;;;33.46;22.02;99424.53;5402217;32;45093;-75
2022/08/14 15:32:44;;;;;;;;;;;;;;;33.32;22.13;99429.31;5412363;32;35312;-67
2022/08/14 15:35:48;;;;;;;;;;;;;;;32.84;22.60;99428.19;5404909;32;34997;-67
2022/08/14 15:38:51;;;;;;;;;;;;;;;32.96;22.77;99431.03;5417006;32;33492;-67
2022/08/14 15:41:56;;;;;;;;;;;;;;;32.82;22.86;99430.34;5383824;32;36405;-66
2022/08/14 15:44:59;;;;;;;;;;;;;;;33.47;21.85;99421.56;5417295;32;44729;-75
2022/08/14 15:48:04;;;;;;;;;;;;;;;33.95;21.19;99423.38;5400284;32;34557;-66
2022/08/14 15:51:09;;;;;;;;;;;;;;;33.42;22.20;99422.25;5387334;32;35687;-66
2022/08/14 15:54:13;;;;;;;;;;;;;;;33.18;22.66;99422.41;5416562;32;34533;-67
2022/08/14 15:57:18;;;;;;;;;;;;;;;34.17;21.02;99412.69;5399677;32;35252;-67
2022/08/14 16:03:54;;;;;;;;;;;;;;;33.23;22.00;99407.00;5402076;32;34283;-76
2022/08/14 16:06:57;;;;;;;;;;;;;;;33.74;21.54;99410.25;5387004;32;34314;-76
2022/08/14 16:09:59;;;;;;;;;;;;;;;33.65;21.82;99412.50;5405228;32;44528;-68
2022/08/14 16:13:21;;;;;;;;;;;;;;;33.30;21.88;99406.94;5399568;32;34582;-67
2022/08/14 16:16:43;;;;;;;;;;;;;;;34.18;20.90;99409.72;5393128;32;37041;-75
2022/08/14 16:20:00;;;;;;;;;;;;;;;32.63;23.04;99417.78;5388199;32;45529;-74
2022/08/14 16:23:03;;;;;;;;;;;;;;;33.53;21.68;99400.75;5400875;32;34775;-67
2022/08/14 16:26:14;;;;;;;;;;;;;;;33.50;21.78;99403.94;5401215;32;33270;-68
2022/08/14 16:29:20;;;;;;;;;;;;;;;33.28;22.03;99406.31;5398512;32;33994;-76
2022/08/14 16:32:22;;;;;;;;;;;;;;;33.63;21.46;99411.91;5417178;32;34495;-76
2022/08/14 16:35:37;;;;;;;;;;;;;;;33.71;21.40;99411.56;5397479;32;45427;-75
2022/08/14 16:38:44;;;;;;;;;;;;;;;33.83;21.27;99400.69;5400906;32;35270;-75